Saturday, August 18, 2018, 1:54 PM EDT
Back to Local

KESN, Easton / Newman Field

Location: Easton, MD, United States Lat: 38.8
Local Time: 1:54 PM EDT (17:54 GMT) Lon: -76.067
Time Zone: US/Eastern Elev: 72 ft

Show me the last for .
Show Coded

Time T Td Feel RH Dir Speed Gust Alt SLP Vis Weather Sky Remarks
2018-08-18 12:50 88 73 96 62 270° 5 - 29.92 - 10 SCT060 None
2018-08-18 11:50 86 73 94 66 270° 5 - 29.93 - 10 SCT085 None
2018-08-18 10:50 84 73 91 70 270° 6 - 29.95 - 10 SCT095 None
2018-08-18 09:50 84 73 91 70 300° 5 - 29.95 - 10 SCT090 None
2018-08-18 08:55 81 73 86 78 270° 3 - 29.95 - 10 SCT120 None
2018-08-18 07:50 81 75 87 83 280° 3 - 29.96 - 10 BKN100 None
2018-08-18 06:50 79 75 85 88 300° 3 - 29.95 - 10 BKN100 None
2018-08-18 05:50 79 75 85 88 - Calm - 29.95 - 10 BKN090 None
2018-08-18 05:36 80 75 86 85 260° 3 - 29.95 - 10 CLR None
2018-08-18 05:25 80 75 86 86 250° 5 - 29.95 - 10 CLR None
2018-08-18 05:07 80 75 86 86 250° 3 - 29.96 - 10 CLR None
2018-08-18 04:47 81 75 87 84 - Calm - 29.96 - 10 SCT031 SCT038 None
2018-08-18 04:26 81 76 89 82 290° 3 - 29.97 - 10 SCT036 SCT070 None
2018-08-18 04:07 81 75 88 82 280° 5 - 29.97 - 10 CLR None
2018-08-18 03:47 82 75 89 81 270° 5 - 29.96 - 10 CLR None
2018-08-18 03:26 82 75 89 80 - Calm - 29.97 - 10 CLR None
2018-08-18 03:07 82 75 89 81 - Calm - 29.97 - 10 CLR None
2018-08-18 02:47 83 75 90 78 270° 6 - 29.97 - 10 CLR None
2018-08-18 02:27 83 76 92 77 250° 7 - 29.98 - 10 CLR None
2018-08-18 02:07 84 76 92 77 250° 7 - 29.98 - 10 CLR None
2018-08-18 01:47 84 76 93 78 250° 7 - 29.98 - 10 CLR None
2018-08-18 01:27 84 76 93 77 250° 7 - 29.98 - 10 CLR None
2018-08-18 01:07 84 77 93 80 240° 6 - 29.99 - 10 CLR None
2018-08-18 00:47 83 78 92 84 230° 5 - 29.99 - 10 CLR None
2018-08-18 00:27 82 77 92 84 230° 3 - 29.99 - 10 CLR None
2018-08-18 00:07 83 77 92 83 230° 5 - 29.98 - 10 CLR None
2018-08-17 23:47 83 78 93 82 240° 3 - 29.99 - 10 CLR None
2018-08-17 23:23 83 77 93 82 240° 6 - 29.99 - 10 CLR None
2018-08-17 23:07 84 78 94 81 230° 6 - 29.99 - 10 CLR None
2018-08-17 22:47 85 78 96 80 220° 7 - 29.99 - 10 CLR None
2018-08-17 22:27 85 78 96 80 210° 7 - 29.99 - 10 CLR None
2018-08-17 21:45 84 77 94 79 200° 6 - 30.00 - 10 CLR None
2018-08-17 20:45 84 77 94 79 200° 7 - 30.00 - 10 CLR None
2018-08-17 19:50 86 75 95 70 210° 8 - 30.00 - 10 BKN120 None
2018-08-17 18:50 88 75 98 66 200° 9 - 30.00 - 10 BKN120 None
2018-08-17 17:50 90 75 100 62 200° 12 17 30.01 - 10 BKN120 None
2018-08-17 16:50 91 73 101 55 210° 14 21 30.02 - 10 CLR None

Support USWX by starting your Amazon purchase here.